sensor_id;sensor_type;location;lat;lon;timestamp;P1;durP1;ratioP1;P2;durP2;ratioP2
13238;SDS011;6686;51.292;4.166;2023-05-10T00:00:42;25.73;;;17.10;;
13238;SDS011;6686;51.292;4.166;2023-05-10T00:03:28;24.53;;;17.30;;
13238;SDS011;6686;51.292;4.166;2023-05-10T00:06:14;25.40;;;16.97;;
13238;SDS011;6686;51.292;4.166;2023-05-10T00:09:00;26.27;;;17.37;;
13238;SDS011;6686;51.292;4.166;2023-05-10T00:11:46;21.07;;;15.23;;
13238;SDS011;6686;51.292;4.166;2023-05-10T00:14:31;28.17;;;15.83;;
13238;SDS011;6686;51.292;4.166;2023-05-10T00:17:17;26.60;;;16.23;;
13238;SDS011;6686;51.292;4.166;2023-05-10T00:20:03;22.53;;;15.57;;
13238;SDS011;6686;51.292;4.166;2023-05-10T00:22:49;28.48;;;18.62;;
13238;SDS011;6686;51.292;4.166;2023-05-10T00:25:35;24.23;;;16.93;;
13238;SDS011;6686;51.292;4.166;2023-05-10T00:28:21;28.73;;;16.90;;
13238;SDS011;6686;51.292;4.166;2023-05-10T00:31:07;28.13;;;18.07;;
13238;SDS011;6686;51.292;4.166;2023-05-10T00:33:53;39.70;;;22.33;;
13238;SDS011;6686;51.292;4.166;2023-05-10T00:36:39;39.57;;;23.13;;
13238;SDS011;6686;51.292;4.166;2023-05-10T00:39:25;42.38;;;28.30;;
13238;SDS011;6686;51.292;4.166;2023-05-10T00:42:11;43.47;;;24.87;;
13238;SDS011;6686;51.292;4.166;2023-05-10T00:44:57;38.70;;;23.20;;
13238;SDS011;6686;51.292;4.166;2023-05-10T00:47:43;35.07;;;23.00;;
13238;SDS011;6686;51.292;4.166;2023-05-10T00:50:29;32.07;;;20.03;;
13238;SDS011;6686;51.292;4.166;2023-05-10T00:53:15;30.40;;;19.93;;
13238;SDS011;6686;51.292;4.166;2023-05-10T00:56:00;33.40;;;20.07;;
13238;SDS011;6686;51.292;4.166;2023-05-10T00:58:46;34.13;;;18.77;;
13238;SDS011;6686;51.292;4.166;2023-05-10T01:01:32;26.50;;;18.13;;
13238;SDS011;6686;51.292;4.166;2023-05-10T01:04:18;28.70;;;16.97;;
13238;SDS011;6686;51.292;4.166;2023-05-10T01:07:05;23.43;;;15.67;;
13238;SDS011;6686;51.292;4.166;2023-05-10T01:09:51;20.77;;;14.07;;
13238;SDS011;6686;51.292;4.166;2023-05-10T01:12:38;22.67;;;15.03;;
13238;SDS011;6686;51.292;4.166;2023-05-10T01:15:22;21.17;;;14.70;;
13238;SDS011;6686;51.292;4.166;2023-05-10T01:18:08;21.97;;;14.40;;
13238;SDS011;6686;51.292;4.166;2023-05-10T01:21:01;21.80;;;13.77;;
13238;SDS011;6686;51.292;4.166;2023-05-10T01:27:33;21.17;;;15.43;;
13238;SDS011;6686;51.292;4.166;2023-05-10T01:30:45;23.73;;;16.07;;
13238;SDS011;6686;51.292;4.166;2023-05-10T01:39:25;29.97;;;18.10;;
13238;SDS011;6686;51.292;4.166;2023-05-10T01:42:14;32.17;;;20.97;;
13238;SDS011;6686;51.292;4.166;2023-05-10T01:48:10;45.25;;;29.92;;
13238;SDS011;6686;51.292;4.166;2023-05-10T01:50:56;41.10;;;26.70;;
13238;SDS011;6686;51.292;4.166;2023-05-10T01:53:42;38.37;;;25.27;;
13238;SDS011;6686;51.292;4.166;2023-05-10T01:56:29;39.37;;;24.87;;
13238;SDS011;6686;51.292;4.166;2023-05-10T01:59:15;33.07;;;22.50;;
13238;SDS011;6686;51.292;4.166;2023-05-10T02:02:00;32.20;;;22.63;;
13238;SDS011;6686;51.292;4.166;2023-05-10T02:04:46;35.35;;;25.48;;
13238;SDS011;6686;51.292;4.166;2023-05-10T02:07:33;34.90;;;25.27;;
13238;SDS011;6686;51.292;4.166;2023-05-10T02:10:18;34.17;;;22.53;;
13238;SDS011;6686;51.292;4.166;2023-05-10T02:13:04;34.23;;;22.70;;
13238;SDS011;6686;51.292;4.166;2023-05-10T02:15:50;35.57;;;23.80;;
13238;SDS011;6686;51.292;4.166;2023-05-10T02:18:36;32.83;;;21.53;;
13238;SDS011;6686;51.292;4.166;2023-05-10T02:21:21;35.67;;;26.40;;
13238;SDS011;6686;51.292;4.166;2023-05-10T02:24:07;37.00;;;24.23;;
13238;SDS011;6686;51.292;4.166;2023-05-10T02:26:53;35.77;;;23.43;;
13238;SDS011;6686;51.292;4.166;2023-05-10T02:29:39;36.33;;;23.40;;
13238;SDS011;6686;51.292;4.166;2023-05-10T02:32:26;38.47;;;24.60;;
13238;SDS011;6686;51.292;4.166;2023-05-10T02:35:11;38.33;;;24.27;;
13238;SDS011;6686;51.292;4.166;2023-05-10T02:37:57;35.73;;;24.47;;
13238;SDS011;6686;51.292;4.166;2023-05-10T02:40:43;39.93;;;24.40;;
13238;SDS011;6686;51.292;4.166;2023-05-10T02:43:29;37.73;;;25.03;;
13238;SDS011;6686;51.292;4.166;2023-05-10T02:46:15;38.33;;;25.00;;
13238;SDS011;6686;51.292;4.166;2023-05-10T02:49:00;37.07;;;23.30;;
13238;SDS011;6686;51.292;4.166;2023-05-10T02:51:50;37.50;;;23.80;;
13238;SDS011;6686;51.292;4.166;2023-05-10T02:54:33;32.87;;;21.73;;
13238;SDS011;6686;51.292;4.166;2023-05-10T02:57:20;32.07;;;21.70;;
13238;SDS011;6686;51.292;4.166;2023-05-10T03:00:04;32.80;;;21.37;;
13238;SDS011;6686;51.292;4.166;2023-05-10T03:02:50;31.43;;;21.40;;
13238;SDS011;6686;51.292;4.166;2023-05-10T03:05:36;33.70;;;21.83;;
13238;SDS011;6686;51.292;4.166;2023-05-10T03:08:22;35.60;;;22.87;;
13238;SDS011;6686;51.292;4.166;2023-05-10T03:14:45;33.87;;;22.33;;
13238;SDS011;6686;51.292;4.166;2023-05-10T03:17:06;34.67;;;22.47;;
13238;SDS011;6686;51.292;4.166;2023-05-10T03:19:53;33.37;;;22.53;;
13238;SDS011;6686;51.292;4.166;2023-05-10T03:22:40;40.70;;;23.03;;
13238;SDS011;6686;51.292;4.166;2023-05-10T03:25:24;37.63;;;26.15;;
13238;SDS011;6686;51.292;4.166;2023-05-10T03:28:10;36.50;;;23.20;;
13238;SDS011;6686;51.292;4.166;2023-05-10T03:30:56;35.97;;;22.97;;
13238;SDS011;6686;51.292;4.166;2023-05-10T03:33:48;35.13;;;22.60;;
13238;SDS011;6686;51.292;4.166;2023-05-10T03:36:33;34.33;;;22.60;;
13238;SDS011;6686;51.292;4.166;2023-05-10T03:39:19;37.90;;;22.17;;
13238;SDS011;6686;51.292;4.166;2023-05-10T03:42:05;31.10;;;21.40;;
13238;SDS011;6686;51.292;4.166;2023-05-10T03:44:51;33.57;;;22.83;;
13238;SDS011;6686;51.292;4.166;2023-05-10T03:47:37;32.00;;;20.33;;
13238;SDS011;6686;51.292;4.166;2023-05-10T03:50:24;34.10;;;21.40;;
13238;SDS011;6686;51.292;4.166;2023-05-10T03:53:10;31.13;;;20.13;;
13238;SDS011;6686;51.292;4.166;2023-05-10T03:55:56;30.00;;;21.57;;
13238;SDS011;6686;51.292;4.166;2023-05-10T03:58:41;34.93;;;21.03;;
13238;SDS011;6686;51.292;4.166;2023-05-10T04:01:27;31.87;;;21.97;;
13238;SDS011;6686;51.292;4.166;2023-05-10T04:04:13;35.40;;;21.50;;
13238;SDS011;6686;51.292;4.166;2023-05-10T04:06:59;40.60;;;22.53;;
13238;SDS011;6686;51.292;4.166;2023-05-10T04:09:45;34.30;;;20.77;;
13238;SDS011;6686;51.292;4.166;2023-05-10T04:12:31;33.30;;;21.37;;
13238;SDS011;6686;51.292;4.166;2023-05-10T04:15:17;30.97;;;20.97;;
13238;SDS011;6686;51.292;4.166;2023-05-10T04:18:02;30.83;;;19.80;;
13238;SDS011;6686;51.292;4.166;2023-05-10T04:20:48;29.03;;;18.90;;
13238;SDS011;6686;51.292;4.166;2023-05-10T04:23:34;31.63;;;22.47;;
13238;SDS011;6686;51.292;4.166;2023-05-10T04:26:20;28.33;;;22.48;;
13238;SDS011;6686;51.292;4.166;2023-05-10T04:29:06;30.10;;;22.60;;
13238;SDS011;6686;51.292;4.166;2023-05-10T04:31:53;30.25;;;21.90;;
13238;SDS011;6686;51.292;4.166;2023-05-10T04:34:38;27.37;;;20.98;;
13238;SDS011;6686;51.292;4.166;2023-05-10T04:37:24;26.07;;;18.10;;
13238;SDS011;6686;51.292;4.166;2023-05-10T04:40:10;22.90;;;17.23;;
13238;SDS011;6686;51.292;4.166;2023-05-10T04:42:56;23.03;;;18.20;;
13238;SDS011;6686;51.292;4.166;2023-05-10T04:45:42;20.43;;;17.37;;
13238;SDS011;6686;51.292;4.166;2023-05-10T04:48:28;22.93;;;18.00;;
13238;SDS011;6686;51.292;4.166;2023-05-10T04:51:14;21.67;;;16.63;;
13238;SDS011;6686;51.292;4.166;2023-05-10T04:53:59;24.20;;;18.63;;
13238;SDS011;6686;51.292;4.166;2023-05-10T04:56:45;25.50;;;19.30;;
13238;SDS011;6686;51.292;4.166;2023-05-10T04:59:31;22.97;;;16.47;;
13238;SDS011;6686;51.292;4.166;2023-05-10T05:02:18;25.07;;;17.87;;
13238;SDS011;6686;51.292;4.166;2023-05-10T05:05:03;27.10;;;18.47;;
13238;SDS011;6686;51.292;4.166;2023-05-10T05:07:50;23.67;;;17.40;;
13238;SDS011;6686;51.292;4.166;2023-05-10T05:10:35;25.77;;;20.55;;
13238;SDS011;6686;51.292;4.166;2023-05-10T05:13:23;25.30;;;18.57;;
13238;SDS011;6686;51.292;4.166;2023-05-10T05:16:10;22.30;;;17.07;;
13238;SDS011;6686;51.292;4.166;2023-05-10T05:18:56;24.50;;;16.77;;
13238;SDS011;6686;51.292;4.166;2023-05-10T05:21:41;24.07;;;17.53;;
13238;SDS011;6686;51.292;4.166;2023-05-10T05:24:34;21.30;;;16.80;;
13238;SDS011;6686;51.292;4.166;2023-05-10T05:27:16;25.50;;;17.10;;
13238;SDS011;6686;51.292;4.166;2023-05-10T05:30:02;22.70;;;17.10;;
13238;SDS011;6686;51.292;4.166;2023-05-10T05:32:48;22.37;;;18.17;;
13238;SDS011;6686;51.292;4.166;2023-05-10T05:35:34;24.27;;;17.53;;
13238;SDS011;6686;51.292;4.166;2023-05-10T05:38:20;24.67;;;18.93;;
13238;SDS011;6686;51.292;4.166;2023-05-10T05:41:06;21.60;;;17.63;;
13238;SDS011;6686;51.292;4.166;2023-05-10T05:43:52;23.63;;;17.23;;
13238;SDS011;6686;51.292;4.166;2023-05-10T05:46:39;24.13;;;17.83;;
13238;SDS011;6686;51.292;4.166;2023-05-10T05:49:25;24.23;;;19.00;;
13238;SDS011;6686;51.292;4.166;2023-05-10T05:52:11;17.53;;;15.40;;
13238;SDS011;6686;51.292;4.166;2023-05-10T05:54:58;21.40;;;16.77;;
13238;SDS011;6686;51.292;4.166;2023-05-10T05:57:44;21.50;;;15.53;;
13238;SDS011;6686;51.292;4.166;2023-05-10T06:00:30;16.97;;;13.53;;
13238;SDS011;6686;51.292;4.166;2023-05-10T06:03:16;16.43;;;13.47;;
13238;SDS011;6686;51.292;4.166;2023-05-10T06:06:05;19.73;;;13.83;;
13238;SDS011;6686;51.292;4.166;2023-05-10T06:08:51;18.17;;;15.85;;
13238;SDS011;6686;51.292;4.166;2023-05-10T06:11:37;19.47;;;14.63;;
13238;SDS011;6686;51.292;4.166;2023-05-10T06:14:23;16.53;;;14.70;;
13238;SDS011;6686;51.292;4.166;2023-05-10T06:17:09;18.85;;;16.60;;
13238;SDS011;6686;51.292;4.166;2023-05-10T06:19:55;18.07;;;14.47;;
13238;SDS011;6686;51.292;4.166;2023-05-10T06:22:41;17.67;;;13.63;;
13238;SDS011;6686;51.292;4.166;2023-05-10T06:25:27;14.80;;;12.43;;
13238;SDS011;6686;51.292;4.166;2023-05-10T06:28:13;15.17;;;13.00;;
13238;SDS011;6686;51.292;4.166;2023-05-10T06:30:59;15.30;;;13.30;;
13238;SDS011;6686;51.292;4.166;2023-05-10T06:33:45;14.30;;;12.53;;
13238;SDS011;6686;51.292;4.166;2023-05-10T06:36:31;16.23;;;14.52;;
13238;SDS011;6686;51.292;4.166;2023-05-10T06:39:16;15.13;;;12.13;;
13238;SDS011;6686;51.292;4.166;2023-05-10T06:42:03;15.57;;;12.87;;
13238;SDS011;6686;51.292;4.166;2023-05-10T06:44:49;15.80;;;14.07;;
13238;SDS011;6686;51.292;4.166;2023-05-10T06:47:34;13.87;;;11.40;;
13238;SDS011;6686;51.292;4.166;2023-05-10T06:50:21;13.20;;;11.47;;
13238;SDS011;6686;51.292;4.166;2023-05-10T06:53:06;12.07;;;10.47;;
13238;SDS011;6686;51.292;4.166;2023-05-10T06:55:52;14.50;;;12.10;;
13238;SDS011;6686;51.292;4.166;2023-05-10T06:58:38;13.77;;;10.67;;
13238;SDS011;6686;51.292;4.166;2023-05-10T07:01:24;13.40;;;11.77;;
13238;SDS011;6686;51.292;4.166;2023-05-10T07:04:10;11.43;;;10.23;;
13238;SDS011;6686;51.292;4.166;2023-05-10T07:06:56;14.20;;;10.20;;
13238;SDS011;6686;51.292;4.166;2023-05-10T07:09:42;9.63;;;8.73;;
13238;SDS011;6686;51.292;4.166;2023-05-10T07:12:28;10.67;;;9.07;;
13238;SDS011;6686;51.292;4.166;2023-05-10T07:15:14;11.30;;;9.50;;
13238;SDS011;6686;51.292;4.166;2023-05-10T07:17:59;12.33;;;10.20;;
13238;SDS011;6686;51.292;4.166;2023-05-10T07:20:46;11.40;;;10.20;;
13238;SDS011;6686;51.292;4.166;2023-05-10T07:23:31;13.07;;;10.80;;
13238;SDS011;6686;51.292;4.166;2023-05-10T07:26:17;11.63;;;9.10;;
13238;SDS011;6686;51.292;4.166;2023-05-10T07:29:03;11.23;;;10.00;;
13238;SDS011;6686;51.292;4.166;2023-05-10T07:31:49;11.10;;;9.13;;
13238;SDS011;6686;51.292;4.166;2023-05-10T07:34:35;10.17;;;9.07;;
13238;SDS011;6686;51.292;4.166;2023-05-10T07:37:21;9.03;;;7.90;;
13238;SDS011;6686;51.292;4.166;2023-05-10T07:40:07;9.27;;;8.37;;
13238;SDS011;6686;51.292;4.166;2023-05-10T07:42:53;9.50;;;8.43;;
13238;SDS011;6686;51.292;4.166;2023-05-10T07:45:39;8.63;;;7.40;;
13238;SDS011;6686;51.292;4.166;2023-05-10T07:48:25;11.00;;;9.43;;
13238;SDS011;6686;51.292;4.166;2023-05-10T07:51:11;7.73;;;6.37;;
13238;SDS011;6686;51.292;4.166;2023-05-10T07:53:57;8.67;;;7.77;;
13238;SDS011;6686;51.292;4.166;2023-05-10T07:56:43;8.07;;;7.27;;
13238;SDS011;6686;51.292;4.166;2023-05-10T07:59:29;7.87;;;6.20;;
13238;SDS011;6686;51.292;4.166;2023-05-10T08:02:15;8.63;;;6.67;;
13238;SDS011;6686;51.292;4.166;2023-05-10T08:05:01;7.60;;;6.87;;
13238;SDS011;6686;51.292;4.166;2023-05-10T08:07:47;6.83;;;6.13;;
13238;SDS011;6686;51.292;4.166;2023-05-10T08:10:32;7.90;;;6.77;;
13238;SDS011;6686;51.292;4.166;2023-05-10T08:13:18;7.17;;;6.27;;
13238;SDS011;6686;51.292;4.166;2023-05-10T08:16:04;7.03;;;6.37;;
13238;SDS011;6686;51.292;4.166;2023-05-10T08:18:50;7.00;;;6.40;;
13238;SDS011;6686;51.292;4.166;2023-05-10T08:21:36;6.83;;;6.13;;
13238;SDS011;6686;51.292;4.166;2023-05-10T08:24:22;6.57;;;5.97;;
13238;SDS011;6686;51.292;4.166;2023-05-10T08:27:07;7.60;;;6.85;;
13238;SDS011;6686;51.292;4.166;2023-05-10T08:29:53;7.57;;;6.30;;
13238;SDS011;6686;51.292;4.166;2023-05-10T08:32:39;7.43;;;6.60;;
13238;SDS011;6686;51.292;4.166;2023-05-10T08:35:25;7.67;;;6.07;;
13238;SDS011;6686;51.292;4.166;2023-05-10T08:38:11;5.87;;;5.27;;
13238;SDS011;6686;51.292;4.166;2023-05-10T08:40:57;5.53;;;5.03;;
13238;SDS011;6686;51.292;4.166;2023-05-10T08:43:42;6.67;;;5.90;;
13238;SDS011;6686;51.292;4.166;2023-05-10T08:46:28;7.57;;;5.80;;
13238;SDS011;6686;51.292;4.166;2023-05-10T08:49:16;6.57;;;5.97;;
13238;SDS011;6686;51.292;4.166;2023-05-10T08:52:02;7.70;;;6.17;;
13238;SDS011;6686;51.292;4.166;2023-05-10T08:54:49;6.93;;;6.20;;
13238;SDS011;6686;51.292;4.166;2023-05-10T08:57:35;8.00;;;6.20;;
13238;SDS011;6686;51.292;4.166;2023-05-10T09:00:20;7.57;;;6.30;;
13238;SDS011;6686;51.292;4.166;2023-05-10T09:03:06;5.90;;;5.40;;
13238;SDS011;6686;51.292;4.166;2023-05-10T09:05:52;8.17;;;5.97;;
13238;SDS011;6686;51.292;4.166;2023-05-10T09:08:38;5.67;;;5.10;;
13238;SDS011;6686;51.292;4.166;2023-05-10T09:11:24;6.60;;;5.90;;
13238;SDS011;6686;51.292;4.166;2023-05-10T09:14:10;6.30;;;5.70;;
13238;SDS011;6686;51.292;4.166;2023-05-10T09:16:56;8.20;;;6.00;;
13238;SDS011;6686;51.292;4.166;2023-05-10T09:19:42;7.27;;;5.87;;
13238;SDS011;6686;51.292;4.166;2023-05-10T09:22:29;5.83;;;5.20;;
13238;SDS011;6686;51.292;4.166;2023-05-10T09:25:17;6.10;;;5.50;;
13238;SDS011;6686;51.292;4.166;2023-05-10T09:28:05;6.70;;;6.00;;
13238;SDS011;6686;51.292;4.166;2023-05-10T09:30:52;6.37;;;5.77;;
13238;SDS011;6686;51.292;4.166;2023-05-10T09:33:43;6.70;;;5.87;;
13238;SDS011;6686;51.292;4.166;2023-05-10T09:36:21;6.23;;;5.10;;
13238;SDS011;6686;51.292;4.166;2023-05-10T09:39:07;7.97;;;5.43;;
13238;SDS011;6686;51.292;4.166;2023-05-10T09:41:52;5.97;;;5.40;;
13238;SDS011;6686;51.292;4.166;2023-05-10T09:44:38;6.00;;;4.90;;
13238;SDS011;6686;51.292;4.166;2023-05-10T09:47:24;5.73;;;4.70;;
13238;SDS011;6686;51.292;4.166;2023-05-10T09:50:10;5.30;;;4.33;;
13238;SDS011;6686;51.292;4.166;2023-05-10T09:52:56;7.70;;;5.33;;
13238;SDS011;6686;51.292;4.166;2023-05-10T09:55:45;5.30;;;4.80;;
13238;SDS011;6686;51.292;4.166;2023-05-10T09:58:30;7.57;;;5.80;;
13238;SDS011;6686;51.292;4.166;2023-05-10T10:01:16;9.93;;;7.63;;
13238;SDS011;6686;51.292;4.166;2023-05-10T10:04:03;10.37;;;9.00;;
13238;SDS011;6686;51.292;4.166;2023-05-10T10:07:04;12.07;;;8.97;;
13238;SDS011;6686;51.292;4.166;2023-05-10T10:09:46;10.10;;;7.43;;
13238;SDS011;6686;51.292;4.166;2023-05-10T10:12:32;7.43;;;5.03;;
13238;SDS011;6686;51.292;4.166;2023-05-10T10:15:18;9.93;;;5.33;;
13238;SDS011;6686;51.292;4.166;2023-05-10T10:18:04;11.00;;;8.77;;
13238;SDS011;6686;51.292;4.166;2023-05-10T10:20:50;28.07;;;21.33;;
13238;SDS011;6686;51.292;4.166;2023-05-10T10:23:36;34.70;;;26.80;;
13238;SDS011;6686;51.292;4.166;2023-05-10T10:26:22;26.63;;;17.10;;
13238;SDS011;6686;51.292;4.166;2023-05-10T10:29:23;27.08;;;20.33;;
13238;SDS011;6686;51.292;4.166;2023-05-10T10:32:59;25.47;;;17.87;;
13238;SDS011;6686;51.292;4.166;2023-05-10T10:35:01;30.02;;;21.85;;
13238;SDS011;6686;51.292;4.166;2023-05-10T10:37:47;33.03;;;22.13;;
13238;SDS011;6686;51.292;4.166;2023-05-10T10:40:34;31.53;;;19.77;;
13238;SDS011;6686;51.292;4.166;2023-05-10T10:43:23;26.60;;;19.80;;
13238;SDS011;6686;51.292;4.166;2023-05-10T10:46:11;26.00;;;20.23;;
13238;SDS011;6686;51.292;4.166;2023-05-10T10:49:09;28.07;;;19.87;;
13238;SDS011;6686;51.292;4.166;2023-05-10T10:52:14;28.03;;;19.83;;
13238;SDS011;6686;51.292;4.166;2023-05-10T10:55:06;23.50;;;18.53;;
13238;SDS011;6686;51.292;4.166;2023-05-10T10:57:57;28.37;;;21.43;;
13238;SDS011;6686;51.292;4.166;2023-05-10T11:00:46;32.20;;;22.30;;
13238;SDS011;6686;51.292;4.166;2023-05-10T11:03:32;28.67;;;20.67;;
13238;SDS011;6686;51.292;4.166;2023-05-10T11:06:17;26.80;;;19.67;;
13238;SDS011;6686;51.292;4.166;2023-05-10T11:09:10;23.57;;;19.40;;
13238;SDS011;6686;51.292;4.166;2023-05-10T11:11:56;25.20;;;18.70;;
13238;SDS011;6686;51.292;4.166;2023-05-10T11:14:41;29.87;;;20.70;;
13238;SDS011;6686;51.292;4.166;2023-05-10T11:17:27;31.25;;;24.95;;
13238;SDS011;6686;51.292;4.166;2023-05-10T11:20:14;31.00;;;22.10;;
13238;SDS011;6686;51.292;4.166;2023-05-10T11:23:10;29.00;;;20.03;;
13238;SDS011;6686;51.292;4.166;2023-05-10T11:25:45;25.33;;;18.50;;
13238;SDS011;6686;51.292;4.166;2023-05-10T11:28:31;25.00;;;19.13;;
13238;SDS011;6686;51.292;4.166;2023-05-10T11:31:17;24.65;;;20.70;;
13238;SDS011;6686;51.292;4.166;2023-05-10T11:34:02;24.97;;;18.97;;
13238;SDS011;6686;51.292;4.166;2023-05-10T11:36:50;19.87;;;16.83;;
13238;SDS011;6686;51.292;4.166;2023-05-10T11:39:34;22.43;;;18.17;;
13238;SDS011;6686;51.292;4.166;2023-05-10T11:42:20;25.50;;;18.83;;
13238;SDS011;6686;51.292;4.166;2023-05-10T11:45:06;25.97;;;20.27;;
13238;SDS011;6686;51.292;4.166;2023-05-10T11:47:52;28.90;;;20.80;;
13238;SDS011;6686;51.292;4.166;2023-05-10T11:50:38;31.63;;;21.57;;
13238;SDS011;6686;51.292;4.166;2023-05-10T11:53:26;27.90;;;20.50;;
13238;SDS011;6686;51.292;4.166;2023-05-10T11:56:12;28.20;;;20.80;;
13238;SDS011;6686;51.292;4.166;2023-05-10T11:58:58;26.23;;;20.23;;
13238;SDS011;6686;51.292;4.166;2023-05-10T12:01:44;29.13;;;21.37;;
13238;SDS011;6686;51.292;4.166;2023-05-10T12:04:30;30.67;;;21.10;;
13238;SDS011;6686;51.292;4.166;2023-05-10T12:07:15;30.10;;;19.80;;
13238;SDS011;6686;51.292;4.166;2023-05-10T12:10:08;20.27;;;15.47;;
13238;SDS011;6686;51.292;4.166;2023-05-10T12:12:53;27.30;;;18.03;;
13238;SDS011;6686;51.292;4.166;2023-05-10T12:15:39;24.93;;;17.23;;
13238;SDS011;6686;51.292;4.166;2023-05-10T12:18:25;22.10;;;16.43;;
13238;SDS011;6686;51.292;4.166;2023-05-10T12:21:11;19.07;;;14.37;;
13238;SDS011;6686;51.292;4.166;2023-05-10T12:24:03;21.83;;;16.00;;
13238;SDS011;6686;51.292;4.166;2023-05-10T12:26:49;21.67;;;15.20;;
13238;SDS011;6686;51.292;4.166;2023-05-10T12:29:35;22.47;;;15.30;;
13238;SDS011;6686;51.292;4.166;2023-05-10T12:32:20;18.92;;;15.65;;
13238;SDS011;6686;51.292;4.166;2023-05-10T12:35:06;21.57;;;14.47;;
13238;SDS011;6686;51.292;4.166;2023-05-10T12:37:52;17.37;;;14.00;;
13238;SDS011;6686;51.292;4.166;2023-05-10T12:40:39;22.13;;;14.43;;
13238;SDS011;6686;51.292;4.166;2023-05-10T12:43:25;19.43;;;14.47;;
13238;SDS011;6686;51.292;4.166;2023-05-10T12:46:11;20.77;;;16.80;;
13238;SDS011;6686;51.292;4.166;2023-05-10T12:48:57;17.37;;;14.40;;
13238;SDS011;6686;51.292;4.166;2023-05-10T12:51:42;22.67;;;14.83;;
13238;SDS011;6686;51.292;4.166;2023-05-10T12:54:28;18.80;;;14.20;;
13238;SDS011;6686;51.292;4.166;2023-05-10T12:57:14;15.83;;;11.57;;
13238;SDS011;6686;51.292;4.166;2023-05-10T13:00:00;13.63;;;11.13;;
13238;SDS011;6686;51.292;4.166;2023-05-10T13:02:46;13.00;;;10.80;;
13238;SDS011;6686;51.292;4.166;2023-05-10T13:05:32;14.33;;;12.83;;
13238;SDS011;6686;51.292;4.166;2023-05-10T13:08:19;14.95;;;13.32;;
13238;SDS011;6686;51.292;4.166;2023-05-10T13:11:05;16.00;;;12.80;;
13238;SDS011;6686;51.292;4.166;2023-05-10T13:13:51;15.03;;;13.27;;
13238;SDS011;6686;51.292;4.166;2023-05-10T13:16:37;13.40;;;11.93;;
13238;SDS011;6686;51.292;4.166;2023-05-10T13:19:23;17.40;;;13.43;;
13238;SDS011;6686;51.292;4.166;2023-05-10T13:22:09;22.60;;;17.00;;
13238;SDS011;6686;51.292;4.166;2023-05-10T13:24:55;20.20;;;17.53;;
13238;SDS011;6686;51.292;4.166;2023-05-10T13:27:40;19.70;;;16.33;;
13238;SDS011;6686;51.292;4.166;2023-05-10T13:30:26;25.30;;;18.43;;
13238;SDS011;6686;51.292;4.166;2023-05-10T13:33:13;24.77;;;18.40;;
13238;SDS011;6686;51.292;4.166;2023-05-10T13:35:58;21.43;;;16.40;;
13238;SDS011;6686;51.292;4.166;2023-05-10T13:38:44;15.60;;;13.90;;
13238;SDS011;6686;51.292;4.166;2023-05-10T13:41:30;14.83;;;11.00;;
13238;SDS011;6686;51.292;4.166;2023-05-10T13:44:16;11.77;;;9.33;;
13238;SDS011;6686;51.292;4.166;2023-05-10T13:47:03;12.30;;;9.75;;
13238;SDS011;6686;51.292;4.166;2023-05-10T13:49:49;10.80;;;7.57;;
13238;SDS011;6686;51.292;4.166;2023-05-10T13:52:35;8.47;;;6.73;;
13238;SDS011;6686;51.292;4.166;2023-05-10T13:55:21;8.93;;;7.03;;
13238;SDS011;6686;51.292;4.166;2023-05-10T13:58:07;8.53;;;6.90;;
13238;SDS011;6686;51.292;4.166;2023-05-10T14:00:53;9.07;;;6.70;;
13238;SDS011;6686;51.292;4.166;2023-05-10T14:03:39;8.93;;;6.70;;
13238;SDS011;6686;51.292;4.166;2023-05-10T14:06:24;7.93;;;5.83;;
13238;SDS011;6686;51.292;4.166;2023-05-10T14:09:10;7.33;;;6.13;;
13238;SDS011;6686;51.292;4.166;2023-05-10T14:11:56;8.17;;;6.47;;
13238;SDS011;6686;51.292;4.166;2023-05-10T14:14:42;9.87;;;7.17;;
13238;SDS011;6686;51.292;4.166;2023-05-10T14:17:28;9.20;;;7.77;;
13238;SDS011;6686;51.292;4.166;2023-05-10T14:20:13;11.00;;;8.90;;
13238;SDS011;6686;51.292;4.166;2023-05-10T14:22:59;14.63;;;9.80;;
13238;SDS011;6686;51.292;4.166;2023-05-10T14:25:45;11.40;;;9.17;;
13238;SDS011;6686;51.292;4.166;2023-05-10T14:28:31;11.50;;;8.70;;
13238;SDS011;6686;51.292;4.166;2023-05-10T14:31:17;15.07;;;10.53;;
13238;SDS011;6686;51.292;4.166;2023-05-10T14:34:04;12.63;;;10.13;;
13238;SDS011;6686;51.292;4.166;2023-05-10T14:36:50;18.10;;;13.03;;
13238;SDS011;6686;51.292;4.166;2023-05-10T14:39:36;15.43;;;11.07;;
13238;SDS011;6686;51.292;4.166;2023-05-10T14:42:21;15.77;;;11.23;;
13238;SDS011;6686;51.292;4.166;2023-05-10T14:45:07;14.67;;;10.37;;
13238;SDS011;6686;51.292;4.166;2023-05-10T14:47:54;18.35;;;13.10;;
13238;SDS011;6686;51.292;4.166;2023-05-10T14:50:40;20.43;;;16.47;;
13238;SDS011;6686;51.292;4.166;2023-05-10T14:53:26;20.13;;;13.23;;
13238;SDS011;6686;51.292;4.166;2023-05-10T14:56:12;17.07;;;11.23;;
13238;SDS011;6686;51.292;4.166;2023-05-10T14:58:58;13.87;;;9.77;;
13238;SDS011;6686;51.292;4.166;2023-05-10T15:01:44;17.50;;;11.10;;
13238;SDS011;6686;51.292;4.166;2023-05-10T15:04:29;18.83;;;11.70;;
13238;SDS011;6686;51.292;4.166;2023-05-10T15:07:15;18.53;;;10.90;;
13238;SDS011;6686;51.292;4.166;2023-05-10T15:10:02;17.80;;;11.23;;
13238;SDS011;6686;51.292;4.166;2023-05-10T15:12:47;18.53;;;11.17;;
13238;SDS011;6686;51.292;4.166;2023-05-10T15:15:39;17.37;;;12.10;;
13238;SDS011;6686;51.292;4.166;2023-05-10T15:18:25;17.83;;;11.57;;
13238;SDS011;6686;51.292;4.166;2023-05-10T15:21:11;16.37;;;11.48;;
13238;SDS011;6686;51.292;4.166;2023-05-10T15:23:58;19.57;;;11.10;;
13238;SDS011;6686;51.292;4.166;2023-05-10T15:26:44;15.77;;;11.13;;
13238;SDS011;6686;51.292;4.166;2023-05-10T15:29:30;16.67;;;11.45;;
13238;SDS011;6686;51.292;4.166;2023-05-10T15:32:16;14.38;;;10.82;;
13238;SDS011;6686;51.292;4.166;2023-05-10T15:35:01;12.57;;;9.40;;
13238;SDS011;6686;51.292;4.166;2023-05-10T15:37:47;16.17;;;10.07;;
13238;SDS011;6686;51.292;4.166;2023-05-10T15:40:33;15.57;;;9.67;;
13238;SDS011;6686;51.292;4.166;2023-05-10T15:43:19;16.27;;;10.23;;
13238;SDS011;6686;51.292;4.166;2023-05-10T15:46:05;16.90;;;10.60;;
13238;SDS011;6686;51.292;4.166;2023-05-10T15:48:51;16.87;;;10.68;;
13238;SDS011;6686;51.292;4.166;2023-05-10T15:51:37;14.90;;;10.82;;
13238;SDS011;6686;51.292;4.166;2023-05-10T15:54:22;14.13;;;9.33;;
13238;SDS011;6686;51.292;4.166;2023-05-10T15:57:08;16.27;;;9.87;;
13238;SDS011;6686;51.292;4.166;2023-05-10T15:59:54;15.20;;;10.80;;
13238;SDS011;6686;51.292;4.166;2023-05-10T16:02:40;16.20;;;10.57;;
13238;SDS011;6686;51.292;4.166;2023-05-10T16:05:26;14.98;;;10.63;;
13238;SDS011;6686;51.292;4.166;2023-05-10T16:08:12;15.55;;;10.73;;
13238;SDS011;6686;51.292;4.166;2023-05-10T16:10:58;15.70;;;9.80;;
13238;SDS011;6686;51.292;4.166;2023-05-10T16:13:44;13.80;;;9.20;;
13238;SDS011;6686;51.292;4.166;2023-05-10T16:16:29;15.57;;;9.40;;
13238;SDS011;6686;51.292;4.166;2023-05-10T16:19:15;15.10;;;11.02;;
13238;SDS011;6686;51.292;4.166;2023-05-10T16:22:02;16.60;;;10.17;;
13238;SDS011;6686;51.292;4.166;2023-05-10T16:24:48;16.00;;;10.37;;
13238;SDS011;6686;51.292;4.166;2023-05-10T16:27:34;15.43;;;10.60;;
13238;SDS011;6686;51.292;4.166;2023-05-10T16:30:20;14.33;;;11.03;;
13238;SDS011;6686;51.292;4.166;2023-05-10T16:33:06;17.63;;;10.37;;
13238;SDS011;6686;51.292;4.166;2023-05-10T16:35:52;17.23;;;9.60;;
13238;SDS011;6686;51.292;4.166;2023-05-10T16:38:37;16.87;;;10.17;;
13238;SDS011;6686;51.292;4.166;2023-05-10T16:41:24;14.47;;;9.37;;
13238;SDS011;6686;51.292;4.166;2023-05-10T16:44:12;20.98;;;11.55;;
13238;SDS011;6686;51.292;4.166;2023-05-10T16:46:59;15.17;;;9.83;;
13238;SDS011;6686;51.292;4.166;2023-05-10T16:49:44;16.17;;;9.87;;